Time;durP1;ratioP1;P1;durP2;ratioP2;P2;SDS_P1;SDS_P2;PMS_P1;PMS_P2;Temp;Humidity;BMP_temperature;BMP_pressure;BME280_temperature;BME280_humidity;BME280_pressure;Samples;Min_cycle;Max_cycle;Signal;HPM_P1;HPM_P2
2022/01/03 00:01:00;;;;;;;;;;;7.80;99.90;;;;;;6254504;22;19921;-89
2022/01/03 00:03:25;;;;;;;;;;;8.30;99.90;;;;;;6229395;22;19918;-88
2022/01/03 00:05:53;;;;;;;;;;;7.90;99.90;;;;;;6229436;22;20180;-89
2022/01/03 00:08:19;;;;;;;;;;;8.00;99.90;;;;;;6233003;22;20361;-88
2022/01/03 00:10:44;;;;;;;;;;;8.20;99.90;;;;;;6229066;22;19915;-88
2022/01/03 00:13:10;;;;;;;;;;;8.10;99.90;;;;;;6254649;22;20253;-88
2022/01/03 00:15:35;;;;;;;;;;;8.00;99.90;;;;;;6280244;22;19921;-88
2022/01/03 00:18:01;;;;;;;;;;;8.30;99.90;;;;;;6229120;22;19915;-89
2022/01/03 00:20:27;;;;;;;;;;;8.10;99.90;;;;;;6280090;22;19921;-89
2022/01/03 00:22:57;;;;;;;;;;;8.20;99.90;;;;;;6229776;22;19914;-88
2022/01/03 00:25:23;;;;;;;;;;;8.10;99.90;;;;;;6229154;22;19969;-88
2022/01/03 00:27:57;;;;;;;;;;;8.60;99.90;;;;;;6229644;22;19982;-89
2022/01/03 00:30:23;;;;;;;;;;;8.30;99.90;;;;;;6254815;22;19923;-88
2022/01/03 00:32:50;;;;;;;;;;;9.20;99.90;;;;;;6229342;22;19930;-89
2022/01/03 00:35:16;;;;;;;;;;;8.50;99.90;;;;;;6229669;22;19915;-89
2022/01/03 00:37:47;;;;;;;;;;;8.20;99.90;;;;;;6254281;22;20241;-89
2022/01/03 00:40:13;;;;;;;;;;;8.40;99.90;;;;;;6229097;22;19914;-88
2022/01/03 00:42:39;;;;;;;;;;;8.30;99.90;;;;;;6229090;22;19977;-89
2022/01/03 00:45:04;;;;;;;;;;;9.30;99.90;;;;;;6229242;22;20327;-89
2022/01/03 00:47:33;;;;;;;;;;;8.60;99.90;;;;;;6254414;22;19998;-88
2022/01/03 00:50:00;;;;;;;;;;;8.40;99.90;;;;;;6228988;22;19925;-88
2022/01/03 00:52:25;;;;;;;;;;;8.40;99.90;;;;;;6228781;22;19926;-89
2022/01/03 00:54:51;;;;;;;;;;;9.20;99.90;;;;;;6254106;22;19914;-88
2022/01/03 00:57:19;;;;;;;;;;;8.40;99.90;;;;;;6253886;22;19915;-89
2022/01/03 00:59:50;;;;;;;;;;;9.00;99.90;;;;;;6254438;22;19922;-89
2022/01/03 01:02:16;;;;;;;;;;;8.30;99.90;;;;;;6279049;22;19963;-88
2022/01/03 01:04:43;;;;;;;;;;;8.20;99.90;;;;;;6229142;22;19915;-88
2022/01/03 01:07:08;;;;;;;;;;;8.20;99.90;;;;;;6228897;22;19915;-89
2022/01/03 01:09:34;;;;;;;;;;;8.10;99.90;;;;;;6248238;22;19925;-89
2022/01/03 01:12:00;;;;;;;;;;;8.00;99.90;;;;;;6228780;22;19926;-89
2022/01/03 01:14:26;;;;;;;;;;;8.00;99.90;;;;;;6228749;22;19915;-89
2022/01/03 01:16:51;;;;;;;;;;;8.80;99.90;;;;;;6279404;22;19915;-87
2022/01/03 01:19:17;;;;;;;;;;;8.00;99.90;;;;;;6254066;22;19922;-88
2022/01/03 01:21:43;;;;;;;;;;;8.30;99.90;;;;;;6253965;22;19915;-88
2022/01/03 01:24:08;;;;;;;;;;;8.00;99.90;;;;;;6305341;22;19919;-88
2022/01/03 01:29:18;;;;;;;;;;;7.50;99.90;;;;;;6258062;22;19915;-89
2022/01/03 01:31:44;;;;;;;;;;;8.00;99.90;;;;;;6228490;22;20295;-89
2022/01/03 01:34:10;;;;;;;;;;;8.00;99.90;;;;;;6253801;22;19981;-88
2022/01/03 01:36:36;;;;;;;;;;;8.20;99.90;;;;;;6254284;22;20320;-89
2022/01/03 01:39:05;;;;;;;;;;;7.90;99.90;;;;;;6228410;22;20345;-88
2022/01/03 01:41:31;;;;;;;;;;;8.00;99.90;;;;;;6228907;22;19915;-88
2022/01/03 01:43:57;;;;;;;;;;;8.10;99.90;;;;;;6228437;22;19921;-88
2022/01/03 01:46:24;;;;;;;;;;;8.20;99.90;;;;;;6254098;22;20219;-88
2022/01/03 01:48:50;;;;;;;;;;;7.40;99.90;;;;;;6228769;22;19914;-88
2022/01/03 01:51:16;;;;;;;;;;;9.10;99.90;;;;;;6253681;22;20354;-89
2022/01/03 01:53:48;;;;;;;;;;;8.60;99.90;;;;;;6228505;22;19923;-88
2022/01/03 01:56:23;;;;;;;;;;;8.30;99.90;;;;;;6229017;22;19915;-88
2022/01/03 01:59:08;;;;;;;;;;;8.30;99.90;;;;;;6228816;22;20339;-87
2022/01/03 02:01:47;;;;;;;;;;;8.30;99.90;;;;;;6228137;22;20228;-88
2022/01/03 02:04:12;;;;;;;;;;;8.40;99.90;;;;;;6253739;22;19915;-88
2022/01/03 02:06:45;;;;;;;;;;;8.40;99.90;;;;;;6253413;22;19941;-87
2022/01/03 02:09:18;;;;;;;;;;;8.40;99.90;;;;;;6268319;22;20430;-88
2022/01/03 02:11:46;;;;;;;;;;;8.40;99.90;;;;;;6305047;22;20354;-89
2022/01/03 02:14:12;;;;;;;;;;;8.40;99.90;;;;;;6279643;22;19918;-87
2022/01/03 02:16:38;;;;;;;;;;;9.50;99.90;;;;;;6279236;22;19950;-88
2022/01/03 02:19:03;;;;;;;;;;;8.50;99.90;;;;;;6228391;22;19926;-88
2022/01/03 02:21:29;;;;;;;;;;;9.10;99.90;;;;;;6228155;22;19919;-89
2022/01/03 02:23:54;;;;;;;;;;;8.40;99.90;;;;;;6279023;22;19919;-88
2022/01/03 02:26:20;;;;;;;;;;;9.30;99.90;;;;;;6228412;22;19915;-90
2022/01/03 02:28:45;;;;;;;;;;;8.80;99.90;;;;;;6253832;22;20350;-88
2022/01/03 02:31:11;;;;;;;;;;;8.50;99.90;;;;;;6228566;22;19925;-89
2022/01/03 02:33:38;;;;;;;;;;;8.40;99.90;;;;;;6278868;22;19922;-90
2022/01/03 02:36:06;;;;;;;;;;;9.20;99.90;;;;;;6228174;22;19958;-89
2022/01/03 02:38:31;;;;;;;;;;;8.50;99.90;;;;;;6228140;22;19919;-88
2022/01/03 02:40:57;;;;;;;;;;;8.20;99.90;;;;;;6227437;22;20293;-87
2022/01/03 02:43:22;;;;;;;;;;;8.90;99.90;;;;;;6228212;22;20339;-88
2022/01/03 02:45:48;;;;;;;;;;;8.00;99.90;;;;;;6228086;22;19923;-89
2022/01/03 02:48:13;;;;;;;;;;;7.90;99.90;;;;;;6279106;22;19922;-88
2022/01/03 02:50:39;;;;;;;;;;;8.40;99.90;;;;;;6227935;22;19919;-88
2022/01/03 02:53:05;;;;;;;;;;;8.40;99.90;;;;;;6253338;22;19948;-88
2022/01/03 02:55:30;;;;;;;;;;;8.50;99.90;;;;;;6279235;22;19975;-88
2022/01/03 02:58:05;;;;;;;;;;;8.40;99.90;;;;;;6253353;22;19914;-88
2022/01/03 03:00:31;;;;;;;;;;;8.40;99.90;;;;;;6229999;22;19970;-89
2022/01/03 03:02:59;;;;;;;;;;;8.40;99.90;;;;;;6228108;22;19918;-88
2022/01/03 03:05:24;;;;;;;;;;;8.40;99.90;;;;;;6228701;22;19972;-88
2022/01/03 03:07:50;;;;;;;;;;;8.70;99.90;;;;;;6230716;22;20314;-88
2022/01/03 03:10:17;;;;;;;;;;;8.70;99.90;;;;;;6310001;22;19940;-89
2022/01/03 03:12:43;;;;;;;;;;;8.50;99.90;;;;;;6309755;22;19929;-92
2022/01/03 03:15:09;;;;;;;;;;;8.20;99.90;;;;;;6258704;22;19923;-89
2022/01/03 03:17:35;;;;;;;;;;;8.30;99.90;;;;;;6258326;22;19986;-88
2022/01/03 03:20:02;;;;;;;;;;;8.60;99.90;;;;;;6285178;22;20130;-88
2022/01/03 03:22:31;;;;;;;;;;;8.20;99.90;;;;;;6311659;22;20369;-88
2022/01/03 03:25:10;;;;;;;;;;;8.90;99.90;;;;;;6260726;22;20425;-89
2022/01/03 03:27:42;;;;;;;;;;;8.30;99.90;;;;;;6260408;22;19922;-89
2022/01/03 03:30:09;;;;;;;;;;;8.30;99.90;;;;;;6287500;22;20271;-88
2022/01/03 03:32:34;;;;;;;;;;;8.30;99.90;;;;;;6260159;22;20239;-88
2022/01/03 03:35:02;;;;;;;;;;;7.80;99.90;;;;;;6285658;22;19971;-88
2022/01/03 03:37:27;;;;;;;;;;;8.20;99.90;;;;;;6286256;22;20350;-87
2022/01/03 03:39:53;;;;;;;;;;;8.70;99.90;;;;;;6285724;22;19914;-88
2022/01/03 03:42:19;;;;;;;;;;;8.10;99.90;;;;;;6259915;22;19918;-87
2022/01/03 03:44:47;;;;;;;;;;;8.90;99.90;;;;;;6285854;22;19967;-88
2022/01/03 03:47:12;;;;;;;;;;;7.90;99.90;;;;;;6285530;22;20354;-88
2022/01/03 03:49:38;;;;;;;;;;;8.50;99.90;;;;;;6259965;22;19914;-88
2022/01/03 03:52:04;;;;;;;;;;;8.20;99.90;;;;;;6259802;22;19970;-89
2022/01/03 03:54:30;;;;;;;;;;;8.00;99.90;;;;;;6286132;22;19922;-88
2022/01/03 03:56:57;;;;;;;;;;;7.90;99.90;;;;;;6285631;22;19972;-88
2022/01/03 03:59:23;;;;;;;;;;;7.90;99.90;;;;;;6311266;22;20349;-88
2022/01/03 04:01:48;;;;;;;;;;;8.30;99.90;;;;;;6311289;22;19915;-88
2022/01/03 04:04:14;;;;;;;;;;;9.00;99.90;;;;;;6285708;22;19915;-88
2022/01/03 04:06:40;;;;;;;;;;;8.20;99.90;;;;;;6285491;22;19926;-88
2022/01/03 04:09:05;;;;;;;;;;;7.90;99.90;;;;;;6259626;22;19918;-88
2022/01/03 04:11:30;;;;;;;;;;;7.90;99.90;;;;;;6285308;22;19914;-88
2022/01/03 04:13:56;;;;;;;;;;;8.00;99.90;;;;;;6259711;22;19963;-88
2022/01/03 04:16:21;;;;;;;;;;;8.00;99.90;;;;;;6285418;22;20343;-89
2022/01/03 04:18:47;;;;;;;;;;;8.10;99.90;;;;;;6285585;22;19915;-88
2022/01/03 04:21:13;;;;;;;;;;;8.10;99.90;;;;;;6285350;22;19914;-88
2022/01/03 04:23:38;;;;;;;;;;;8.50;99.90;;;;;;6285301;22;20024;-87
2022/01/03 04:26:09;;;;;;;;;;;8.10;99.90;;;;;;6285269;22;19993;-88
2022/01/03 04:28:35;;;;;;;;;;;7.70;99.90;;;;;;6260934;22;19929;-89
2022/01/03 04:31:00;;;;;;;;;;;8.20;99.90;;;;;;6310692;22;20500;-87
2022/01/03 04:33:26;;;;;;;;;;;8.40;99.90;;;;;;6285254;22;19919;-88
2022/01/03 04:35:51;;;;;;;;;;;8.80;99.90;;;;;;6285185;22;20380;-88
2022/01/03 04:38:18;;;;;;;;;;;8.70;99.90;;;;;;6260011;22;19914;-87
2022/01/03 04:40:44;;;;;;;;;;;8.20;99.90;;;;;;6259995;22;19914;-89
2022/01/03 04:43:09;;;;;;;;;;;8.60;99.90;;;;;;6285248;22;20319;-89
2022/01/03 04:45:35;;;;;;;;;;;8.40;99.90;;;;;;6285220;22;19919;-88
2022/01/03 04:48:00;;;;;;;;;;;8.10;99.90;;;;;;6284974;22;19915;-88
2022/01/03 04:50:26;;;;;;;;;;;7.90;99.90;;;;;;6259946;22;19921;-87
2022/01/03 04:52:51;;;;;;;;;;;8.20;99.90;;;;;;6311299;22;20005;-89
2022/01/03 04:55:17;;;;;;;;;;;8.40;99.90;;;;;;6285437;22;19914;-89
2022/01/03 04:57:43;;;;;;;;;;;9.30;99.90;;;;;;6284849;22;19918;-88
2022/01/03 05:00:09;;;;;;;;;;;9.20;99.90;;;;;;6285098;22;19918;-89
2022/01/03 05:02:37;;;;;;;;;;;8.30;99.90;;;;;;6284596;22;20242;-88
2022/01/03 05:05:04;;;;;;;;;;;8.80;99.90;;;;;;6260340;22;19914;-88
2022/01/03 05:07:29;;;;;;;;;;;8.20;99.90;;;;;;6259373;22;19926;-89
2022/01/03 05:09:55;;;;;;;;;;;8.40;99.90;;;;;;6284657;22;19922;-88
2022/01/03 05:12:20;;;;;;;;;;;8.70;99.90;;;;;;6259150;22;19919;-88
2022/01/03 05:14:46;;;;;;;;;;;8.90;99.90;;;;;;6259263;22;19940;-88
2022/01/03 05:17:11;;;;;;;;;;;8.40;99.90;;;;;;6284812;22;19926;-88
2022/01/03 05:19:37;;;;;;;;;;;8.30;99.90;;;;;;6284892;22;19915;-90
2022/01/03 05:22:03;;;;;;;;;;;8.10;99.90;;;;;;6284578;22;19914;-89
2022/01/03 05:24:28;;;;;;;;;;;8.20;99.90;;;;;;6285011;22;19918;-89
2022/01/03 05:26:56;;;;;;;;;;;8.80;99.90;;;;;;6284989;22;19921;-88
2022/01/03 05:29:21;;;;;;;;;;;8.20;99.90;;;;;;6285183;22;19995;-89
2022/01/03 05:31:47;;;;;;;;;;;8.60;99.90;;;;;;6284354;22;19923;-89
2022/01/03 05:34:13;;;;;;;;;;;8.20;99.90;;;;;;6259212;22;19985;-88
2022/01/03 05:36:38;;;;;;;;;;;8.90;99.90;;;;;;6310373;22;19915;-89
2022/01/03 05:39:04;;;;;;;;;;;8.30;99.90;;;;;;6258970;22;19915;-89
2022/01/03 05:41:32;;;;;;;;;;;8.20;99.90;;;;;;6284186;22;20269;-88
2022/01/03 05:43:58;;;;;;;;;;;8.10;99.90;;;;;;6284957;22;19914;-89
2022/01/03 05:46:23;;;;;;;;;;;8.70;99.90;;;;;;6259239;22;19921;-89
2022/01/03 05:48:49;;;;;;;;;;;8.40;99.90;;;;;;6284851;22;19919;-89
2022/01/03 05:51:14;;;;;;;;;;;8.10;99.90;;;;;;6284295;22;19993;-87
2022/01/03 05:53:40;;;;;;;;;;;7.60;99.90;;;;;;6258531;22;19990;-90
2022/01/03 05:56:05;;;;;;;;;;;8.80;99.90;;;;;;6284885;22;19914;-89
2022/01/03 05:58:33;;;;;;;;;;;8.20;99.90;;;;;;6284792;22;20263;-89
2022/01/03 06:01:01;;;;;;;;;;;8.10;99.90;;;;;;6284898;22;19919;-89
2022/01/03 06:03:29;;;;;;;;;;;9.30;99.90;;;;;;6259157;22;19915;-88
2022/01/03 06:08:23;;;;;;;;;;;8.10;99.90;;;;;;6284759;22;19925;-89
2022/01/03 06:10:49;;;;;;;;;;;8.60;99.90;;;;;;6284584;22;19942;-88
2022/01/03 06:13:15;;;;;;;;;;;8.60;99.90;;;;;;6284635;22;19976;-89
2022/01/03 06:15:40;;;;;;;;;;;8.70;99.90;;;;;;6258732;22;19921;-87
2022/01/03 06:18:10;;;;;;;;;;;8.10;99.90;;;;;;6284791;22;19949;-88
2022/01/03 06:20:37;;;;;;;;;;;8.10;99.90;;;;;;6284951;22;20417;-88
2022/01/03 06:23:03;;;;;;;;;;;8.00;99.90;;;;;;6284903;22;19914;-87
2022/01/03 06:25:28;;;;;;;;;;;7.80;99.90;;;;;;6258644;22;20001;-89
2022/01/03 06:27:54;;;;;;;;;;;8.60;99.90;;;;;;6258724;22;20357;-88
2022/01/03 06:30:23;;;;;;;;;;;7.90;99.90;;;;;;6284314;22;19921;-90
2022/01/03 06:32:48;;;;;;;;;;;8.20;99.90;;;;;;6259597;22;19919;-90
2022/01/03 06:35:13;;;;;;;;;;;8.10;99.90;;;;;;6284368;22;19938;-88
2022/01/03 06:37:39;;;;;;;;;;;8.60;99.90;;;;;;6284204;22;19925;-88
2022/01/03 06:40:06;;;;;;;;;;;8.10;99.90;;;;;;6284282;22;19914;-87
2022/01/03 06:42:31;;;;;;;;;;;8.20;99.90;;;;;;6258717;22;19922;-89
2022/01/03 06:44:59;;;;;;;;;;;8.30;99.90;;;;;;6284651;22;19981;-90
2022/01/03 06:47:25;;;;;;;;;;;8.20;99.90;;;;;;6284714;22;19982;-89
2022/01/03 06:49:50;;;;;;;;;;;8.10;99.90;;;;;;6284705;22;19921;-88
2022/01/03 06:52:23;;;;;;;;;;;8.10;99.90;;;;;;6258666;22;19919;-90
2022/01/03 06:54:49;;;;;;;;;;;8.10;99.90;;;;;;6286668;22;19922;-89
2022/01/03 06:57:15;;;;;;;;;;;8.00;99.90;;;;;;6260471;22;20318;-88
2022/01/03 06:59:41;;;;;;;;;;;8.00;99.90;;;;;;6286706;22;19914;-88
2022/01/03 07:02:06;;;;;;;;;;;8.00;99.90;;;;;;6286047;22;19915;-89
2022/01/03 07:04:32;;;;;;;;;;;8.00;99.90;;;;;;6286069;22;19915;-88
2022/01/03 07:06:57;;;;;;;;;;;8.00;99.90;;;;;;6311819;22;19914;-88
2022/01/03 07:09:23;;;;;;;;;;;8.40;99.90;;;;;;6285904;22;19918;-87
2022/01/03 07:11:48;;;;;;;;;;;8.70;99.90;;;;;;6285774;22;19931;-88
2022/01/03 07:19:33;;;;;;;;;;;8.10;99.90;;;;;;6289884;22;19915;-87
2022/01/03 07:22:00;;;;;;;;;;;9.10;99.90;;;;;;6260220;22;19915;-89
2022/01/03 07:24:26;;;;;;;;;;;8.10;99.90;;;;;;6260715;22;20366;-88
2022/01/03 07:26:51;;;;;;;;;;;8.20;99.90;;;;;;6286116;22;19914;-88
2022/01/03 07:29:17;;;;;;;;;;;8.20;99.90;;;;;;6260334;22;19915;-88
2022/01/03 07:31:42;;;;;;;;;;;8.10;99.90;;;;;;6260301;22;20325;-89
2022/01/03 07:34:07;;;;;;;;;;;8.10;99.90;;;;;;6285894;22;19914;-89
2022/01/03 07:36:33;;;;;;;;;;;8.10;99.90;;;;;;6285587;22;19914;-88
2022/01/03 07:38:58;;;;;;;;;;;8.10;99.90;;;;;;6286191;22;20323;-88
2022/01/03 07:41:24;;;;;;;;;;;8.00;99.90;;;;;;6285674;22;19921;-89
2022/01/03 07:43:55;;;;;;;;;;;7.90;99.90;;;;;;6311504;22;19915;-91
2022/01/03 07:46:20;;;;;;;;;;;7.60;99.90;;;;;;6261585;22;19914;-88
2022/01/03 07:48:51;;;;;;;;;;;7.90;99.90;;;;;;6260132;22;19915;-89
2022/01/03 07:51:16;;;;;;;;;;;7.90;99.90;;;;;;6260814;22;19922;-89
2022/01/03 07:54:25;;;;;;;;;;;7.60;99.90;;;;;;6286176;22;19918;-95
2022/01/03 07:56:53;;;;;;;;;;;8.20;99.90;;;;;;6310104;22;20247;-90
2022/01/03 07:59:29;;;;;;;;;;;7.60;99.90;;;;;;6261301;22;19922;-90
2022/01/03 08:01:58;;;;;;;;;;;7.70;99.90;;;;;;6285747;22;19914;-91
2022/01/03 08:04:24;;;;;;;;;;;7.70;99.90;;;;;;6260882;22;19994;-90
2022/01/03 08:06:54;;;;;;;;;;;7.80;99.90;;;;;;6285896;22;19922;-89
2022/01/03 08:09:23;;;;;;;;;;;7.20;99.90;;;;;;6260712;22;19993;-91
2022/01/03 08:11:58;;;;;;;;;;;;;;;;;;;;;
2022/01/03 08:14:26;;;;;;;;;;;8.50;99.90;;;;;;6288227;22;20277;-89
2022/01/03 08:16:59;;;;;;;;;;;7.90;99.90;;;;;;6285973;22;19922;-90
2022/01/03 08:19:25;;;;;;;;;;;8.40;99.90;;;;;;6282894;22;19919;-89
2022/01/03 08:21:53;;;;;;;;;;;8.60;99.90;;;;;;6259717;22;20032;-91
2022/01/03 08:24:18;;;;;;;;;;;8.70;99.90;;;;;;6260243;22;19937;-89
2022/01/03 08:26:49;;;;;;;;;;;8.80;99.90;;;;;;6259025;22;20319;-90
2022/01/03 08:29:32;;;;;;;;;;;9.10;99.90;;;;;;6285765;22;19918;-90
2022/01/03 08:32:00;;;;;;;;;;;8.60;99.90;;;;;;6285767;22;20243;-90
2022/01/03 08:34:28;;;;;;;;;;;8.10;99.90;;;;;;6259934;22;19914;-89
2022/01/03 08:37:04;;;;;;;;;;;8.40;99.90;;;;;;6285423;22;19914;-92
2022/01/03 08:39:32;;;;;;;;;;;8.40;99.90;;;;;;6286129;22;19919;-89
2022/01/03 08:41:57;;;;;;;;;;;8.50;99.90;;;;;;6285308;22;20238;-90
2022/01/03 08:44:23;;;;;;;;;;;9.30;99.90;;;;;;6285090;22;19915;-90
2022/01/03 08:47:06;;;;;;;;;;;9.00;99.90;;;;;;6284976;22;19915;-90
2022/01/03 08:49:32;;;;;;;;;;;9.50;99.90;;;;;;6284961;22;20345;-89
2022/01/03 08:51:58;;;;;;;;;;;8.60;99.90;;;;;;6285000;22;19961;-90
2022/01/03 08:54:23;;;;;;;;;;;8.70;99.90;;;;;;6284512;22;19914;-90
2022/01/03 08:56:51;;;;;;;;;;;8.70;99.90;;;;;;6259782;22;19929;-89
2022/01/03 08:59:26;;;;;;;;;;;8.60;99.90;;;;;;6259450;22;19915;-90
2022/01/03 09:01:51;;;;;;;;;;;9.60;99.90;;;;;;6285454;22;19915;-92
2022/01/03 09:04:22;;;;;;;;;;;9.20;99.90;;;;;;6285128;22;19950;-89
2022/01/03 09:06:58;;;;;;;;;;;;;;;;;;;;;
2022/01/03 09:09:27;;;;;;;;;;;8.80;99.90;;;;;;6286833;22;19918;-90
2022/01/03 09:11:55;;;;;;;;;;;8.80;99.90;;;;;;6284338;22;19915;-91
2022/01/03 09:14:43;;;;;;;;;;;9.70;99.90;;;;;;6285450;22;19914;-91
2022/01/03 09:17:09;;;;;;;;;;;9.00;99.90;;;;;;6284606;22;19915;-89
2022/01/03 09:19:35;;;;;;;;;;;9.20;99.90;;;;;;6284707;22;19965;-91
2022/01/03 09:22:13;;;;;;;;;;;9.00;99.90;;;;;;6285184;22;20243;-90
2022/01/03 09:28:49;;;;;;;;;;;9.00;99.90;;;;;;6287608;22;19915;-90
2022/01/03 09:30:23;;;;;;;;;;;9.00;99.90;;;;;;6288945;22;19915;-90
2022/01/03 09:33:07;;;;;;;;;;;9.40;99.90;;;;;;6284471;22;19930;-90
2022/01/03 09:35:32;;;;;;;;;;;9.40;99.90;;;;;;6284810;22;19914;-90
2022/01/03 09:38:01;;;;;;;;;;;9.00;99.90;;;;;;6259523;22;20230;-91
2022/01/03 09:40:26;;;;;;;;;;;8.80;99.90;;;;;;6259574;22;20338;-90
2022/01/03 09:43:12;;;;;;;;;;;9.20;99.90;;;;;;6284692;22;19933;-89
2022/01/03 09:45:39;;;;;;;;;;;9.20;99.90;;;;;;6309434;22;19980;-91
2022/01/03 09:48:10;;;;;;;;;;;9.60;99.90;;;;;;6259915;22;19914;-91
2022/01/03 09:50:35;;;;;;;;;;;9.20;99.90;;;;;;6285434;22;20228;-89
2022/01/03 09:53:09;;;;;;;;;;;9.00;99.90;;;;;;6284272;22;20008;-91
2022/01/03 09:55:44;;;;;;;;;;;9.80;99.90;;;;;;6286043;22;19915;-90
2022/01/03 09:58:18;;;;;;;;;;;10.10;99.90;;;;;;6286416;22;20408;-90
2022/01/03 10:00:44;;;;;;;;;;;9.10;99.90;;;;;;6260353;22;19963;-88
2022/01/03 10:03:09;;;;;;;;;;;9.90;99.90;;;;;;6284511;22;19989;-89
2022/01/03 10:05:36;;;;;;;;;;;9.20;99.90;;;;;;6284796;22;19921;-89
2022/01/03 10:08:01;;;;;;;;;;;9.30;99.90;;;;;;6258460;22;19921;-90
2022/01/03 10:10:32;;;;;;;;;;;9.40;99.90;;;;;;6259018;22;19985;-90
2022/01/03 10:13:00;;;;;;;;;;;10.10;99.90;;;;;;6260303;22;19958;-89
2022/01/03 10:15:26;;;;;;;;;;;9.40;99.90;;;;;;6285345;22;19993;-89
2022/01/03 10:17:51;;;;;;;;;;;9.50;99.90;;;;;;6259086;22;19946;-89
2022/01/03 10:20:17;;;;;;;;;;;9.70;99.90;;;;;;6258827;22;19918;-89
2022/01/03 10:22:43;;;;;;;;;;;9.80;99.90;;;;;;6259100;22;19915;-90
2022/01/03 10:25:26;;;;;;;;;;;10.10;99.90;;;;;;6258977;22;19960;-89
2022/01/03 10:27:52;;;;;;;;;;;9.70;99.90;;;;;;6259591;22;19992;-90
2022/01/03 10:30:35;;;;;;;;;;;9.80;99.90;;;;;;6261129;22;19957;-89
2022/01/03 10:33:02;;;;;;;;;;;9.70;99.90;;;;;;6282866;22;19957;-89
2022/01/03 10:35:36;;;;;;;;;;;10.20;99.90;;;;;;6260904;22;19914;-89
2022/01/03 10:38:03;;;;;;;;;;;9.90;99.90;;;;;;6286638;22;19953;-90
2022/01/03 10:40:35;;;;;;;;;;;10.10;99.90;;;;;;6286960;22;19915;-90
2022/01/03 10:43:14;;;;;;;;;;;10.20;99.90;;;;;;6287472;22;19923;-90
2022/01/03 10:45:43;;;;;;;;;;;10.30;99.90;;;;;;6260923;22;19918;-92
2022/01/03 10:48:27;;;;;;;;;;;10.90;99.90;;;;;;6260813;22;19914;-90
2022/01/03 10:50:55;;;;;;;;;;;10.30;99.90;;;;;;6286758;22;20311;-90
2022/01/03 10:53:35;;;;;;;;;;;10.90;99.90;;;;;;6261238;22;19925;-90
2022/01/03 10:56:28;;;;;;;;;;;10.30;99.90;;;;;;6288186;22;19926;-88
2022/01/03 10:58:54;;;;;;;;;;;9.90;99.90;;;;;;6263032;22;20165;-90
2022/01/03 11:01:23;;;;;;;;;;;10.10;99.90;;;;;;6260486;22;19925;-89
2022/01/03 11:03:49;;;;;;;;;;;10.50;99.90;;;;;;6286276;22;19943;-89
2022/01/03 11:11:49;;;;;;;;;;;10.50;99.90;;;;;;6290316;22;20258;-92
2022/01/03 11:14:36;;;;;;;;;;;10.50;99.90;;;;;;6260468;22;19919;-90
2022/01/03 11:17:05;;;;;;;;;;;10.40;99.90;;;;;;6260974;22;19915;-89
2022/01/03 11:19:35;;;;;;;;;;;10.40;99.90;;;;;;6261515;22;19914;-90
2022/01/03 11:22:00;;;;;;;;;;;11.00;99.90;;;;;;6286517;22;19918;-90
2022/01/03 11:24:26;;;;;;;;;;;11.40;99.90;;;;;;6285908;22;19914;-91
2022/01/03 11:26:51;;;;;;;;;;;11.10;99.90;;;;;;6286173;22;20212;-89
2022/01/03 11:29:17;;;;;;;;;;;10.80;99.90;;;;;;6260267;22;20340;-88
2022/01/03 11:31:42;;;;;;;;;;;10.40;99.90;;;;;;6260302;22;19942;-89
2022/01/03 11:34:08;;;;;;;;;;;10.10;99.90;;;;;;6285584;22;20239;-91
2022/01/03 11:36:38;;;;;;;;;;;10.80;99.90;;;;;;6260668;22;19914;-89
2022/01/03 11:39:10;;;;;;;;;;;9.60;99.90;;;;;;6286513;22;19918;-90
2022/01/03 11:41:41;;;;;;;;;;;10.00;99.90;;;;;;6285798;22;19915;-89
2022/01/03 11:44:08;;;;;;;;;;;10.80;99.90;;;;;;6286543;22;20285;-90
2022/01/03 11:46:36;;;;;;;;;;;10.80;99.90;;;;;;6286087;22;20328;-90
2022/01/03 11:49:02;;;;;;;;;;;10.50;99.90;;;;;;6285684;22;19915;-89
2022/01/03 11:51:31;;;;;;;;;;;10.60;99.90;;;;;;6285483;22;19914;-91
2022/01/03 11:53:56;;;;;;;;;;;10.50;99.90;;;;;;6259860;22;19919;-89
2022/01/03 11:56:22;;;;;;;;;;;10.60;99.90;;;;;;6260325;22;19915;-88
2022/01/03 12:04:08;;;;;;;;;;;10.80;99.90;;;;;;6289912;22;19999;-90
2022/01/03 12:06:34;;;;;;;;;;;10.40;99.90;;;;;;6260246;22;19940;-91
2022/01/03 12:09:09;;;;;;;;;;;10.00;99.90;;;;;;6285128;22;20289;-90
2022/01/03 12:11:41;;;;;;;;;;;9.60;99.90;;;;;;6260272;22;19957;-90
2022/01/03 12:14:16;;;;;;;;;;;10.20;99.90;;;;;;6260022;22;19919;-91
2022/01/03 12:16:43;;;;;;;;;;;10.70;99.90;;;;;;6285813;22;20333;-89
2022/01/03 12:19:12;;;;;;;;;;;9.50;99.90;;;;;;6311196;22;19914;-89
2022/01/03 12:21:49;;;;;;;;;;;9.70;99.90;;;;;;6285994;22;19985;-91
2022/01/03 12:24:30;;;;;;;;;;;10.20;99.90;;;;;;6285139;22;20025;-88
2022/01/03 12:27:14;;;;;;;;;;;10.40;99.90;;;;;;6285073;22;19914;-88
2022/01/03 12:29:52;;;;;;;;;;;10.50;99.90;;;;;;6310861;22;19918;-91
2022/01/03 12:32:18;;;;;;;;;;;10.60;99.90;;;;;;6285233;22;19919;-87
2022/01/03 12:34:43;;;;;;;;;;;10.70;99.90;;;;;;6284909;22;19921;-87
2022/01/03 12:37:16;;;;;;;;;;;10.50;99.90;;;;;;6285352;22;19922;-91
2022/01/03 12:40:00;;;;;;;;;;;10.60;99.90;;;;;;6311135;22;19994;-89
2022/01/03 12:42:45;;;;;;;;;;;10.50;99.90;;;;;;6311091;22;19929;-86
2022/01/03 12:45:10;;;;;;;;;;;10.40;99.90;;;;;;6285533;22;20024;-90
2022/01/03 12:47:41;;;;;;;;;;;10.30;99.90;;;;;;6285291;22;19915;-91
2022/01/03 12:50:22;;;;;;;;;;;10.30;99.90;;;;;;6261070;22;19915;-92
2022/01/03 12:53:01;;;;;;;;;;;;;;;;;;;;;
2022/01/03 12:55:41;;;;;;;;;;;10.80;99.90;;;;;;6288008;22;20290;-90
2022/01/03 12:58:18;;;;;;;;;;;10.20;99.90;;;;;;6285237;22;19921;-91
2022/01/03 13:00:52;;;;;;;;;;;10.30;99.90;;;;;;6284657;22;19922;-91
2022/01/03 13:03:32;;;;;;;;;;;10.70;99.90;;;;;;6259822;22;19915;-90
2022/01/03 13:06:23;;;;;;;;;;;10.20;99.90;;;;;;6260430;22;20342;-92
2022/01/03 13:08:55;;;;;;;;;;;10.20;99.90;;;;;;6311254;22;19919;-89
2022/01/03 13:11:21;;;;;;;;;;;10.10;99.90;;;;;;6310771;22;19914;-90
2022/01/03 13:14:08;;;;;;;;;;;10.40;99.90;;;;;;6260112;22;19918;-90
2022/01/03 13:16:38;;;;;;;;;;;10.10;99.90;;;;;;6260630;22;20015;-91
2022/01/03 13:19:16;;;;;;;;;;;10.10;99.90;;;;;;6284983;22;19929;-90
2022/01/03 13:21:56;;;;;;;;;;;;;;;;;;;;;
2022/01/03 13:24:39;;;;;;;;;;;;;;;;;;;;;
2022/01/03 13:27:13;;;;;;;;;;;10.10;99.90;;;;;;6311086;22;19915;-90
2022/01/03 13:29:49;;;;;;;;;;;10.20;99.90;;;;;;6285083;22;19915;-91
2022/01/03 13:32:17;;;;;;;;;;;10.10;99.90;;;;;;6259581;22;19993;-93
2022/01/03 13:34:46;;;;;;;;;;;8.70;99.90;;;;;;6284464;22;20278;-92
2022/01/03 13:37:14;;;;;;;;;;;10.10;99.90;;;;;;6285114;22;19925;-91
2022/01/03 13:39:45;;;;;;;;;;;10.30;99.90;;;;;;6285882;22;20008;-90
2022/01/03 13:42:44;;;;;;;;;;;10.70;99.90;;;;;;6285361;22;19970;-92
2022/01/03 13:49:11;;;;;;;;;;;10.00;99.90;;;;;;6285422;22;20307;-91
2022/01/03 13:50:43;;;;;;;;;;;9.60;99.90;;;;;;6288008;22;19914;-90
2022/01/03 13:53:18;;;;;;;;;;;;;;;;;;;;;
2022/01/03 13:55:45;;;;;;;;;;;9.30;99.90;;;;;;6286290;22;20285;-90
2022/01/03 13:58:14;;;;;;;;;;;9.50;99.90;;;;;;6285262;22;19923;-90
2022/01/03 14:00:43;;;;;;;;;;;9.80;99.90;;;;;;6284976;22;19972;-90
2022/01/03 14:03:18;;;;;;;;;;;;;;;;;;;;;
2022/01/03 14:06:10;;;;;;;;;;;;;;;;;;;;;
2022/01/03 14:08:53;;;;;;;;;;;10.30;99.90;;;;;;6286500;22;20120;-90
2022/01/03 14:11:27;;;;;;;;;;;9.60;99.90;;;;;;6258760;22;19957;-90
2022/01/03 14:13:58;;;;;;;;;;;9.60;99.90;;;;;;6258713;22;19954;-90
2022/01/03 14:16:41;;;;;;;;;;;;;;;;;;;;;
2022/01/03 14:19:10;;;;;;;;;;;9.90;99.90;;;;;;6286720;22;19914;-91
2022/01/03 14:21:44;;;;;;;;;;;9.60;99.90;;;;;;6284675;22;20250;-91
2022/01/03 14:24:18;;;;;;;;;;;10.30;99.90;;;;;;6258897;22;19918;-92
2022/01/03 14:27:13;;;;;;;;;;;10.00;99.90;;;;;;6284984;22;19915;-91
2022/01/03 14:29:41;;;;;;;;;;;9.50;99.90;;;;;;6285081;22;19915;-91
2022/01/03 14:32:16;;;;;;;;;;;9.10;99.90;;;;;;6258965;22;19918;-90
2022/01/03 14:34:54;;;;;;;;;;;9.40;99.90;;;;;;6285184;22;19926;-91
2022/01/03 14:37:51;;;;;;;;;;;;;;;;;;;;;
2022/01/03 14:40:29;;;;;;;;;;;8.90;99.90;;;;;;6255912;22;19918;-92
2022/01/03 14:43:05;;;;;;;;;;;;;;;;;;;;;
2022/01/03 14:45:52;;;;;;;;;;;9.60;99.90;;;;;;6255904;22;19915;-91
2022/01/03 14:48:33;;;;;;;;;;;;;;;;;;;;;
2022/01/03 14:51:31;;;;;;;;;;;9.40;99.90;;;;;;6255431;22;19919;-91
2022/01/03 14:54:08;;;;;;;;;;;8.90;99.90;;;;;;6261572;22;19926;-90
2022/01/03 14:56:57;;;;;;;;;;;9.40;99.90;;;;;;6228182;22;19918;-91
2022/01/03 14:59:39;;;;;;;;;;;9.50;99.90;;;;;;6256993;22;19915;-91
2022/01/03 15:02:12;;;;;;;;;;;9.10;99.90;;;;;;6253523;22;19922;-91
2022/01/03 15:05:06;;;;;;;;;;;9.30;99.90;;;;;;6255594;22;19915;-92
2022/01/03 15:07:29;;;;;;;;;;;8.60;99.90;;;;;;6253347;22;19926;-91
2022/01/03 15:10:05;;;;;;;;;;;9.10;99.90;;;;;;6228609;22;20324;-92
2022/01/03 15:12:33;;;;;;;;;;;9.70;99.90;;;;;;6228360;22;19923;-91
2022/01/03 15:15:30;;;;;;;;;;;8.70;99.90;;;;;;6254037;22;19969;-90
2022/01/03 15:17:56;;;;;;;;;;;9.30;99.90;;;;;;6255289;22;19915;-90
2022/01/03 15:20:46;;;;;;;;;;;8.80;99.90;;;;;;6255583;22;19922;-92